< < Back
Terminal Aerodrome Forecast


Current Version              Previous Versions:   1  2  3  4  5  6  7  8  9  

Terminal Aerodrome Forecast

608
FTUS42 KJAX 251158 CCA
TAFSSI
TAF COR
KSSI 251158Z 2512/2612 VRB04KT P6SM FEW250
      TEMPO 2512/2513 5SM BR
     FM251500 06012KT P6SM VCSH BKN035
     FM252100 07009KT P6SM VCSH SCT050 BKN250
     FM260000 09007KT P6SM BKN250=



Latest METAR

688
SAUS70 KWBC 260000 RRM
MTRSSI
METAR KSSI 252353Z AUTO 04010KT 10SM FEW020 BKN025 27/23 A3001 RMK AO2
SLP165 T02720228 10300 20267 53003


USA.gov is the U.S. government's official web portal to all federal, state and local government web resources and services.